createdAt,value
2024-01-06T00:00:14.854Z,26.27
2024-01-06T00:02:45.277Z,30.70
2024-01-06T00:05:15.822Z,33.17
2024-01-06T00:07:47.360Z,32.33
2024-01-06T02:41:47.475Z,20.80
2024-01-06T02:44:18.448Z,17.88
2024-01-06T02:46:49.828Z,15.52
2024-01-06T02:49:20.345Z,27.33
2024-01-06T02:51:51.000Z,26.73
2024-01-06T02:54:21.511Z,23.03
2024-01-06T02:56:51.854Z,20.43
2024-01-06T02:59:23.226Z,20.23
2024-01-06T03:04:23.583Z,16.92
2024-01-06T03:06:56.943Z,18.27
2024-01-06T03:09:27.384Z,16.00
2024-01-06T03:11:58.124Z,19.77
2024-01-06T03:14:28.586Z,17.33
2024-01-06T03:17:00.624Z,16.27
2024-01-06T03:19:33.026Z,17.38
2024-01-06T03:22:04.087Z,16.77
2024-01-06T03:24:34.846Z,15.32
2024-01-06T03:27:05.242Z,15.20
2024-01-06T03:29:35.607Z,17.15
2024-01-06T03:32:06.118Z,16.08
2024-01-06T03:34:37.021Z,16.52
2024-01-06T03:37:08.401Z,19.90
2024-01-06T03:42:10.505Z,12.20
2024-01-06T03:44:41.271Z,15.18
2024-01-06T03:47:11.517Z,15.90
2024-01-06T03:49:42.121Z,13.03
2024-01-06T03:52:13.460Z,17.43
2024-01-06T03:54:44.088Z,17.52
2024-01-06T03:57:15.775Z,16.50
2024-01-06T03:59:46.469Z,15.57
2024-01-06T04:02:17.312Z,16.60
2024-01-06T04:04:47.860Z,16.80
2024-01-06T04:07:18.370Z,12.60
2024-01-06T04:09:48.953Z,12.98
2024-01-06T04:12:21.272Z,13.85
2024-01-06T04:14:51.612Z,13.98
2024-01-06T04:17:21.752Z,14.98
2024-01-06T04:19:52.556Z,15.53
2024-01-06T04:22:23.283Z,14.75
2024-01-06T04:24:54.262Z,14.30
2024-01-06T04:27:24.622Z,15.50
2024-01-06T04:29:56.570Z,13.77
2024-01-06T04:32:26.962Z,13.15
2024-01-06T04:34:57.393Z,13.13
2024-01-06T04:37:28.165Z,12.98
2024-01-06T04:39:58.908Z,13.68
2024-01-06T04:42:29.588Z,12.30
2024-01-06T04:45:00.211Z,15.18
2024-01-06T04:47:31.407Z,13.20
2024-01-06T04:50:02.284Z,16.35
2024-01-06T04:52:33.521Z,17.50
2024-01-06T04:55:05.258Z,13.80
2024-01-06T04:57:35.646Z,13.85
2024-01-06T05:00:06.894Z,16.20
2024-01-06T05:05:08.006Z,13.60
2024-01-06T05:07:38.422Z,13.33
2024-01-06T05:10:10.510Z,12.77
2024-01-06T05:12:40.914Z,14.40
2024-01-06T05:15:13.254Z,14.13
2024-01-06T05:17:43.787Z,13.52
2024-01-06T05:20:14.237Z,22.95
2024-01-06T05:22:45.074Z,18.50
2024-01-06T05:25:15.574Z,17.95
2024-01-06T05:27:45.961Z,14.10
2024-01-06T05:30:17.334Z,16.63
2024-01-06T05:32:48.071Z,15.10
2024-01-06T05:35:20.449Z,14.67
2024-01-06T05:37:51.242Z,12.82
2024-01-06T05:40:21.563Z,17.23
2024-01-06T05:42:52.065Z,13.82
2024-01-06T05:45:22.592Z,13.60
2024-01-06T05:47:53.535Z,14.37
2024-01-06T05:50:24.199Z,13.02
2024-01-06T05:52:55.564Z,14.75
2024-01-06T05:57:56.508Z,14.15
2024-01-06T06:00:27.770Z,17.53
2024-01-06T06:05:28.300Z,14.63
2024-01-06T06:07:58.725Z,15.10
2024-01-06T06:10:43.699Z,13.75
2024-01-06T06:13:14.588Z,14.68
2024-01-06T06:15:44.942Z,14.25
2024-01-06T06:18:15.377Z,13.00
2024-01-06T06:20:47.356Z,14.57
2024-01-06T06:23:18.377Z,13.68
2024-01-06T06:25:48.776Z,14.07
2024-01-06T06:28:19.352Z,14.27
2024-01-06T06:30:50.204Z,13.80
2024-01-06T06:35:51.514Z,12.25
2024-01-06T06:38:22.222Z,17.70
2024-01-06T06:40:52.840Z,17.53
2024-01-06T06:43:23.391Z,14.97
2024-01-06T06:45:53.870Z,13.18
2024-01-06T06:48:24.547Z,13.43
2024-01-06T06:50:54.839Z,15.32
2024-01-06T06:53:25.260Z,14.77
2024-01-06T06:55:55.575Z,16.08
2024-01-06T06:58:25.939Z,18.45
2024-01-06T07:00:57.795Z,16.05
2024-01-06T07:03:30.408Z,11.93
2024-01-06T07:06:00.849Z,15.45
2024-01-06T07:08:31.237Z,15.43
2024-01-06T07:11:02.891Z,14.73
2024-01-06T07:13:33.285Z,20.30
2024-01-06T07:16:12.007Z,21.83
2024-01-06T07:18:48.803Z,102.30
2024-01-06T07:21:19.443Z,33.95
2024-01-06T07:23:49.822Z,65.90
2024-01-06T07:26:20.695Z,43.80
2024-01-06T07:28:51.279Z,40.83
2024-01-06T07:31:21.925Z,46.77
2024-01-06T07:33:52.419Z,30.50
2024-01-06T07:36:23.054Z,31.73
2024-01-06T07:38:53.732Z,27.10
2024-01-06T07:41:25.141Z,27.60
2024-01-06T07:43:55.656Z,24.98
2024-01-06T07:46:26.016Z,19.77
2024-01-06T07:48:56.557Z,21.08
2024-01-06T07:51:29.853Z,16.00
2024-01-06T07:54:01.678Z,18.35
2024-01-06T07:56:32.306Z,19.33
2024-01-06T07:59:02.943Z,18.33
2024-01-06T08:01:33.526Z,15.77
2024-01-06T08:04:04.371Z,15.10
2024-01-06T08:06:34.966Z,16.40
2024-01-06T08:09:06.894Z,14.07
2024-01-06T08:11:37.485Z,16.10
2024-01-06T08:14:07.981Z,18.33
2024-01-06T08:16:38.442Z,21.10
2024-01-06T08:19:08.987Z,19.13
2024-01-06T08:21:39.478Z,19.60
2024-01-06T08:24:10.231Z,14.43
2024-01-06T08:26:40.784Z,13.17
2024-01-06T08:29:11.237Z,14.13
2024-01-06T08:31:41.913Z,14.77
2024-01-06T08:34:12.545Z,15.03
2024-01-06T08:36:45.691Z,15.57
2024-01-06T08:39:16.818Z,13.93
2024-01-06T08:44:17.637Z,15.95
2024-01-06T08:46:48.056Z,18.33
2024-01-06T08:49:19.113Z,16.23
2024-01-06T08:54:20.001Z,19.30
2024-01-06T08:56:50.906Z,15.53
2024-01-06T08:59:21.275Z,15.50
2024-01-06T09:01:51.717Z,15.50
2024-01-06T09:04:22.372Z,15.25
2024-01-06T09:06:54.312Z,16.15
2024-01-06T09:09:24.885Z,19.30
2024-01-06T09:11:55.951Z,17.57
2024-01-06T09:14:26.525Z,16.77
2024-01-06T09:16:57.429Z,22.42
2024-01-06T09:19:28.050Z,19.07
2024-01-06T09:21:58.660Z,18.00
2024-01-06T09:24:29.080Z,20.27
2024-01-06T09:26:59.719Z,20.33
2024-01-06T09:29:30.329Z,20.97
2024-01-06T09:32:00.719Z,23.17
2024-01-06T09:34:31.337Z,22.77
2024-01-06T09:37:02.041Z,26.27
2024-01-06T09:39:34.652Z,24.30
2024-01-06T09:42:05.315Z,23.65
2024-01-06T09:44:36.577Z,18.57
2024-01-06T09:47:10.197Z,23.60
2024-01-06T09:49:45.472Z,18.13
2024-01-06T09:52:21.363Z,18.95
2024-01-06T09:54:57.502Z,22.52
2024-01-06T09:57:28.546Z,22.17
2024-01-06T10:02:30.445Z,21.60
2024-01-06T10:05:02.184Z,20.77
2024-01-06T10:07:32.888Z,22.35
2024-01-06T10:10:03.342Z,23.80
2024-01-06T10:12:33.867Z,20.20
2024-01-06T10:15:06.569Z,28.03
2024-01-06T10:17:40.004Z,21.10
2024-01-06T10:20:15.885Z,19.58
2024-01-06T10:22:46.639Z,24.23
2024-01-06T10:25:18.622Z,25.67
2024-01-06T10:27:49.045Z,23.02
2024-01-06T10:30:21.825Z,28.37
2024-01-06T10:32:53.880Z,25.52
2024-01-06T10:35:24.408Z,29.40
2024-01-06T10:37:56.062Z,31.07
2024-01-06T10:40:26.451Z,26.00
2024-01-06T10:42:59.879Z,22.13
2024-01-06T10:45:33.499Z,26.80
2024-01-06T10:48:07.127Z,34.67
2024-01-06T10:50:38.173Z,30.40
2024-01-06T10:53:09.529Z,26.25
2024-01-06T10:55:41.510Z,24.95
2024-01-06T10:58:14.016Z,30.88
2024-01-06T11:00:44.913Z,27.88
2024-01-06T11:03:17.427Z,23.30
2024-01-06T11:05:48.652Z,27.63
2024-01-06T11:08:22.262Z,27.88
2024-01-06T11:10:54.137Z,31.42
2024-01-06T11:13:28.940Z,22.50
2024-01-06T11:15:59.489Z,23.23
2024-01-06T11:18:44.433Z,28.65
2024-01-06T11:21:17.901Z,27.10
2024-01-06T11:23:48.812Z,19.48
2024-01-06T11:26:20.415Z,23.92
2024-01-06T11:28:51.450Z,25.73
2024-01-06T11:33:55.213Z,22.00
2024-01-06T11:36:27.344Z,21.83
2024-01-06T11:38:59.421Z,20.63
2024-01-06T11:41:51.684Z,26.27
2024-01-06T11:44:25.659Z,21.60
2024-01-06T11:46:59.347Z,25.35
2024-01-06T11:49:33.742Z,23.00
2024-01-06T11:52:04.502Z,25.90
2024-01-06T11:54:36.070Z,25.45
2024-01-06T11:57:06.798Z,26.27
2024-01-06T11:59:37.177Z,27.85
2024-01-06T12:02:07.786Z,25.65
2024-01-06T12:04:38.380Z,26.98
2024-01-06T12:07:13.449Z,24.77
2024-01-06T12:09:44.024Z,54.05
2024-01-06T12:12:17.805Z,49.83
2024-01-06T12:14:51.432Z,42.15
2024-01-06T12:17:24.789Z,36.40
2024-01-06T12:19:55.568Z,34.30
2024-01-06T12:22:26.038Z,36.20
2024-01-06T12:24:56.876Z,35.83
2024-01-06T12:27:28.996Z,39.60
2024-01-06T12:29:59.376Z,51.42
2024-01-06T12:32:30.096Z,57.67
2024-01-06T12:35:00.757Z,50.50
2024-01-06T12:37:31.915Z,43.57
2024-01-06T12:40:02.575Z,41.75
2024-01-06T12:42:33.131Z,41.80
2024-01-06T12:45:03.548Z,47.07
2024-01-06T12:47:34.598Z,45.50
2024-01-06T12:50:05.136Z,46.08
2024-01-06T12:52:37.275Z,45.63
2024-01-06T12:55:08.286Z,40.97
2024-01-06T12:57:39.293Z,41.80
2024-01-06T13:00:12.314Z,41.95
2024-01-06T13:02:42.890Z,45.17
2024-01-06T13:05:13.637Z,44.60
2024-01-06T13:07:44.709Z,43.20
2024-01-06T13:10:15.264Z,46.15
2024-01-06T13:12:45.911Z,38.87
2024-01-06T13:15:16.939Z,42.20
2024-01-06T13:17:47.713Z,42.40
2024-01-06T13:20:19.793Z,41.53
2024-01-06T13:22:50.290Z,39.90
2024-01-06T13:25:21.315Z,43.50
2024-01-06T13:27:52.598Z,36.35
2024-01-06T13:32:55.834Z,39.90
2024-01-06T13:35:28.607Z,40.47
2024-01-06T13:38:02.253Z,37.70
2024-01-06T13:40:32.625Z,35.13
2024-01-06T13:43:03.214Z,41.10
2024-01-06T13:45:33.836Z,38.73
2024-01-06T13:48:07.194Z,42.10
2024-01-06T13:50:39.696Z,33.65
2024-01-06T13:53:10.466Z,40.23
2024-01-06T13:55:40.865Z,31.53
2024-01-06T13:58:13.026Z,31.57
2024-01-06T14:00:43.738Z,36.88
2024-01-06T14:03:14.744Z,29.88
2024-01-06T14:05:45.884Z,35.03
2024-01-06T14:08:17.669Z,31.02
2024-01-06T14:10:48.713Z,33.40
2024-01-06T14:13:20.133Z,33.17
2024-01-06T14:15:50.728Z,32.67
2024-01-06T14:18:21.485Z,33.17
2024-01-06T14:20:52.296Z,34.72
2024-01-06T14:23:23.610Z,33.47
2024-01-06T14:25:54.186Z,35.13
2024-01-06T14:28:24.730Z,36.63
2024-01-06T14:30:55.898Z,37.35
2024-01-06T14:35:57.082Z,33.15
2024-01-06T14:38:27.554Z,39.87
2024-01-06T14:40:58.072Z,39.27
2024-01-06T14:43:28.671Z,36.37
2024-01-06T14:46:00.037Z,38.93
2024-01-06T14:48:30.939Z,41.50
2024-01-06T14:51:01.743Z,36.83
2024-01-06T14:53:32.403Z,35.33
2024-01-06T14:56:04.937Z,36.50
2024-01-06T14:58:35.584Z,34.45
2024-01-06T15:01:07.555Z,33.13
2024-01-06T15:03:38.225Z,32.90
2024-01-06T15:06:09.206Z,35.10
2024-01-06T15:08:42.469Z,33.00
2024-01-06T15:11:13.104Z,33.85
2024-01-06T15:13:43.890Z,32.63
2024-01-06T15:16:14.567Z,33.30
2024-01-06T15:18:45.144Z,29.73
2024-01-06T15:21:16.505Z,32.20
2024-01-06T15:26:33.635Z,33.17
2024-01-06T15:29:04.159Z,33.63
2024-01-06T15:31:37.738Z,29.37
2024-01-06T15:34:08.581Z,33.03
2024-01-06T15:36:39.252Z,37.50
2024-01-06T15:39:09.848Z,34.35
2024-01-06T15:41:40.512Z,32.42
2024-01-06T15:44:12.912Z,30.17
2024-01-06T15:46:43.533Z,32.05
2024-01-06T15:49:14.547Z,31.42
2024-01-06T15:51:45.407Z,31.17
2024-01-06T15:54:16.131Z,30.00
2024-01-06T15:56:46.721Z,31.47
2024-01-06T15:59:17.466Z,35.90
2024-01-06T16:01:47.963Z,27.97
2024-01-06T16:04:21.761Z,37.80
2024-01-06T16:06:56.786Z,30.13
2024-01-06T16:09:30.385Z,32.33
2024-01-06T16:12:02.038Z,34.30
2024-01-06T16:14:34.190Z,33.22
2024-01-06T16:17:07.474Z,32.33
2024-01-06T16:19:38.407Z,32.17
2024-01-06T16:22:15.125Z,29.50
2024-01-06T16:25:01.862Z,32.40
2024-01-06T16:27:32.708Z,35.53
2024-01-06T16:30:06.445Z,31.55
2024-01-06T16:32:37.108Z,32.65
2024-01-06T16:35:08.031Z,31.20
2024-01-06T16:37:38.909Z,29.92
2024-01-06T16:40:11.444Z,30.77
2024-01-06T16:42:47.224Z,31.00
2024-01-06T16:45:20.304Z,30.08
2024-01-06T16:47:51.182Z,30.30
2024-01-06T16:50:21.735Z,32.22
2024-01-06T16:52:54.358Z,30.37
2024-01-06T16:55:25.429Z,32.33
2024-01-06T16:57:56.142Z,32.83
2024-01-06T17:00:26.903Z,34.63
2024-01-06T17:02:58.000Z,34.23
2024-01-06T17:05:29.652Z,34.28
2024-01-06T17:08:00.825Z,36.15
2024-01-06T17:13:01.625Z,37.83
2024-01-06T17:15:32.402Z,36.13
2024-01-06T17:18:07.572Z,39.67
2024-01-06T17:20:41.929Z,41.17
2024-01-06T17:23:12.519Z,36.28
2024-01-06T17:25:43.086Z,38.45
2024-01-06T17:28:13.866Z,41.60
2024-01-06T17:30:44.611Z,41.63
2024-01-06T17:33:16.422Z,40.33
2024-01-06T17:35:48.207Z,36.83
2024-01-06T17:38:18.936Z,41.72
2024-01-06T17:41:42.980Z,41.97
2024-01-06T17:44:16.641Z,49.25
2024-01-06T17:46:47.115Z,44.13
2024-01-06T17:49:17.847Z,50.60
2024-01-06T17:51:48.741Z,49.30
2024-01-06T17:54:19.388Z,45.43
2024-01-06T17:56:50.108Z,45.38
2024-01-06T17:59:20.619Z,50.27
2024-01-06T18:01:51.343Z,46.27
2024-01-06T18:04:22.145Z,49.83
2024-01-06T18:06:54.503Z,48.05
2024-01-06T18:09:25.033Z,47.53
2024-01-06T18:11:55.541Z,51.45
2024-01-06T18:14:26.774Z,45.13
2024-01-06T18:19:27.375Z,44.58
2024-01-06T18:21:58.224Z,50.03
2024-01-06T18:24:29.716Z,48.03
2024-01-06T18:29:30.554Z,47.88
2024-01-06T18:32:01.174Z,42.17
2024-01-06T18:34:32.197Z,48.75
2024-01-06T18:37:03.821Z,42.40
2024-01-06T18:39:34.635Z,50.35
2024-01-06T18:42:05.074Z,44.50
2024-01-06T18:44:35.804Z,43.70
2024-01-06T18:47:12.153Z,46.87
2024-01-06T18:49:42.929Z,44.50
2024-01-06T18:52:15.407Z,40.37
2024-01-06T18:54:46.046Z,40.95
2024-01-06T18:57:17.540Z,43.13
2024-01-06T18:59:48.236Z,40.72
2024-01-06T19:02:18.766Z,40.93
2024-01-06T19:04:49.897Z,40.37
2024-01-06T19:07:21.916Z,36.03
2024-01-06T19:09:52.788Z,40.65
2024-01-06T19:12:23.623Z,41.25
2024-01-06T19:14:54.234Z,44.22
2024-01-06T19:17:27.520Z,39.90
2024-01-06T19:19:58.018Z,38.95
2024-01-06T19:22:28.322Z,38.20
2024-01-06T19:24:59.892Z,44.70
2024-01-06T19:27:30.278Z,37.42
2024-01-06T19:30:00.850Z,42.17
2024-01-06T19:32:31.324Z,40.50
2024-01-06T19:35:01.827Z,40.13
2024-01-06T19:37:32.366Z,37.17
2024-01-06T19:40:03.117Z,39.20
2024-01-06T19:42:34.314Z,38.63
2024-01-06T19:45:05.503Z,35.17
2024-01-06T19:47:38.193Z,33.63
2024-01-06T19:50:09.317Z,34.22
2024-01-06T19:55:13.184Z,33.55
2024-01-06T19:57:43.584Z,34.90
2024-01-06T20:00:14.478Z,34.42
2024-01-06T20:02:45.250Z,35.22
2024-01-06T20:05:15.707Z,39.28
2024-01-06T20:07:46.539Z,36.30
2024-01-06T20:10:17.298Z,33.10
2024-01-06T20:12:47.911Z,37.03
2024-01-06T20:15:18.593Z,33.50
2024-01-06T20:17:50.011Z,35.77
2024-01-06T20:22:50.451Z,36.67
2024-01-06T20:25:20.784Z,34.20
2024-01-06T20:27:51.208Z,39.97
2024-01-06T20:30:22.878Z,37.30
2024-01-06T20:32:53.520Z,35.25
2024-01-06T20:35:24.311Z,34.53
2024-01-06T20:37:57.090Z,36.47
2024-01-06T20:40:28.240Z,35.60
2024-01-06T20:42:58.637Z,34.30
2024-01-06T20:45:30.638Z,34.83
2024-01-06T20:48:01.083Z,32.78
2024-01-06T20:50:31.679Z,32.53
2024-01-06T20:53:02.303Z,34.72
2024-01-06T20:55:32.784Z,34.00
2024-01-06T20:58:19.149Z,33.05
2024-01-06T21:00:50.054Z,34.67
2024-01-06T21:03:20.502Z,35.53
2024-01-06T21:05:51.115Z,37.47
2024-01-06T21:08:21.338Z,34.25
2024-01-06T21:10:52.789Z,35.15
2024-01-06T21:15:52.862Z,35.47
2024-01-06T21:18:23.241Z,33.05
2024-01-06T21:20:53.697Z,34.83
2024-01-06T21:23:31.771Z,33.53
2024-01-06T21:26:10.711Z,34.60
2024-01-06T21:28:41.196Z,34.45
2024-01-06T21:31:13.461Z,35.70
2024-01-06T21:33:44.165Z,32.42
2024-01-06T21:36:15.095Z,36.00
2024-01-06T21:38:48.798Z,33.60
2024-01-06T21:41:19.797Z,33.38
2024-01-06T21:46:20.666Z,30.40
2024-01-06T21:48:51.160Z,31.77
2024-01-06T21:51:22.101Z,35.27
2024-01-06T21:53:52.598Z,34.75
2024-01-06T21:56:23.185Z,32.88
2024-01-06T21:58:53.457Z,31.30
2024-01-06T22:01:23.915Z,33.20
2024-01-06T22:03:54.474Z,30.88
2024-01-06T22:06:24.991Z,35.73
2024-01-06T22:08:55.576Z,34.85
2024-01-06T22:11:26.381Z,37.65
2024-01-06T22:13:56.830Z,29.75
2024-01-06T22:16:27.312Z,30.45
2024-01-06T22:18:57.912Z,33.07
2024-01-06T22:21:28.649Z,34.53
2024-01-06T22:24:00.956Z,29.65
2024-01-06T22:26:32.400Z,29.52
2024-01-06T22:31:33.032Z,30.52
2024-01-06T22:34:03.619Z,30.75
2024-01-06T22:36:34.393Z,31.87
2024-01-06T22:39:05.226Z,30.48
2024-01-06T22:41:35.601Z,28.98
2024-01-06T22:44:06.018Z,31.15
2024-01-06T22:46:36.434Z,31.83
2024-01-06T22:49:08.312Z,28.20
2024-01-06T22:51:38.818Z,28.38
2024-01-06T22:54:09.804Z,32.78
2024-01-06T22:56:42.040Z,29.10
2024-01-06T22:59:12.448Z,28.40
2024-01-06T23:01:42.791Z,26.90
2024-01-06T23:04:13.413Z,27.98
2024-01-06T23:06:43.958Z,29.67
2024-01-06T23:09:14.485Z,28.70
2024-01-06T23:11:48.075Z,27.88
2024-01-06T23:14:18.803Z,25.92
2024-01-06T23:16:49.905Z,27.27
2024-01-06T23:19:20.722Z,32.83
2024-01-06T23:21:51.633Z,31.92
2024-01-06T23:24:22.256Z,30.58
2024-01-06T23:26:52.829Z,27.33
2024-01-06T23:29:23.222Z,31.50
2024-01-06T23:31:53.660Z,31.38
2024-01-06T23:34:30.595Z,29.05
2024-01-06T23:37:12.240Z,29.13
2024-01-06T23:39:42.679Z,29.50
2024-01-06T23:42:13.524Z,32.67
2024-01-06T23:44:43.887Z,37.67
2024-01-06T23:47:14.507Z,33.83
2024-01-06T23:49:45.174Z,31.07
2024-01-06T23:52:15.917Z,31.37
2024-01-06T23:54:46.459Z,33.92
2024-01-06T23:57:16.988Z,31.35
2024-01-06T23:59:47.465Z,27.90
